sensor_id;sensor_type;location;lat;lon;timestamp;pressure;altitude;pressure_sealevel;temperature;humidity
45071;BME280;30836;48.906;9.140;2024-01-07T00:00:33;980.29;;;14.10;48.24
45071;BME280;30836;48.906;9.140;2024-01-07T00:01:34;980.29;;;14.12;48.25
45071;BME280;30836;48.906;9.140;2024-01-07T00:02:34;980.27;;;14.13;48.25
45071;BME280;30836;48.906;9.140;2024-01-07T00:03:35;980.31;;;14.15;48.13
45071;BME280;30836;48.906;9.140;2024-01-07T00:04:35;980.31;;;14.13;48.21
45071;BME280;30836;48.906;9.140;2024-01-07T00:05:36;980.29;;;14.07;48.15
45071;BME280;30836;48.906;9.140;2024-01-07T00:06:36;980.31;;;13.99;48.17
45071;BME280;30836;48.906;9.140;2024-01-07T00:07:37;980.31;;;13.96;48.20
45071;BME280;30836;48.906;9.140;2024-01-07T00:08:37;980.29;;;13.94;48.31
45071;BME280;30836;48.906;9.140;2024-01-07T00:09:37;980.33;;;13.94;48.26
45071;BME280;30836;48.906;9.140;2024-01-07T00:10:38;980.33;;;13.95;48.21
45071;BME280;30836;48.906;9.140;2024-01-07T00:11:39;980.33;;;13.97;48.23
45071;BME280;30836;48.906;9.140;2024-01-07T00:12:40;980.33;;;13.95;48.26
45071;BME280;30836;48.906;9.140;2024-01-07T00:13:40;980.31;;;13.92;48.28
45071;BME280;30836;48.906;9.140;2024-01-07T00:14:41;980.33;;;13.90;48.33
45071;BME280;30836;48.906;9.140;2024-01-07T00:15:41;980.35;;;13.87;48.44
45071;BME280;30836;48.906;9.140;2024-01-07T00:16:41;980.33;;;13.87;48.34
45071;BME280;30836;48.906;9.140;2024-01-07T00:17:42;980.35;;;13.90;48.23
45071;BME280;30836;48.906;9.140;2024-01-07T00:18:42;980.35;;;13.90;48.24
45071;BME280;30836;48.906;9.140;2024-01-07T00:19:43;980.35;;;13.90;48.42
45071;BME280;30836;48.906;9.140;2024-01-07T00:20:43;980.35;;;13.89;48.28
45071;BME280;30836;48.906;9.140;2024-01-07T00:21:44;980.37;;;13.88;48.46
45071;BME280;30836;48.906;9.140;2024-01-07T00:22:44;980.37;;;13.91;48.30
45071;BME280;30836;48.906;9.140;2024-01-07T00:23:44;980.35;;;13.95;48.25
45071;BME280;30836;48.906;9.140;2024-01-07T00:24:45;980.35;;;13.98;48.27
45071;BME280;30836;48.906;9.140;2024-01-07T00:25:46;980.35;;;14.00;48.21
45071;BME280;30836;48.906;9.140;2024-01-07T00:26:47;980.33;;;14.01;48.22
45071;BME280;30836;48.906;9.140;2024-01-07T00:27:47;980.33;;;14.04;48.19
45071;BME280;30836;48.906;9.140;2024-01-07T00:28:48;980.37;;;14.08;48.05
45071;BME280;30836;48.906;9.140;2024-01-07T00:29:48;980.35;;;14.13;48.05
45071;BME280;30836;48.906;9.140;2024-01-07T00:30:48;980.35;;;14.17;48.03
45071;BME280;30836;48.906;9.140;2024-01-07T00:31:49;980.35;;;14.21;47.95
45071;BME280;30836;48.906;9.140;2024-01-07T00:32:49;980.31;;;14.22;47.91
45071;BME280;30836;48.906;9.140;2024-01-07T00:33:50;980.29;;;14.20;47.91
45071;BME280;30836;48.906;9.140;2024-01-07T00:34:50;980.31;;;14.19;47.88
45071;BME280;30836;48.906;9.140;2024-01-07T00:35:51;980.33;;;14.14;48.15
45071;BME280;30836;48.906;9.140;2024-01-07T00:36:51;980.31;;;14.07;48.15
45071;BME280;30836;48.906;9.140;2024-01-07T00:37:51;980.31;;;14.05;48.17
45071;BME280;30836;48.906;9.140;2024-01-07T00:38:52;980.31;;;14.05;48.13
45071;BME280;30836;48.906;9.140;2024-01-07T00:39:52;980.31;;;14.05;48.11
45071;BME280;30836;48.906;9.140;2024-01-07T00:40:53;980.31;;;14.04;48.11
45071;BME280;30836;48.906;9.140;2024-01-07T00:41:53;980.33;;;14.03;48.14
45071;BME280;30836;48.906;9.140;2024-01-07T00:42:53;980.33;;;14.04;48.12
45071;BME280;30836;48.906;9.140;2024-01-07T00:43:54;980.33;;;14.03;48.05
45071;BME280;30836;48.906;9.140;2024-01-07T00:44:54;980.35;;;14.02;48.21
45071;BME280;30836;48.906;9.140;2024-01-07T00:45:55;980.35;;;14.01;48.17
45071;BME280;30836;48.906;9.140;2024-01-07T00:46:55;980.33;;;14.00;48.13
45071;BME280;30836;48.906;9.140;2024-01-07T00:47:56;980.33;;;13.98;48.04
45071;BME280;30836;48.906;9.140;2024-01-07T00:48:56;980.35;;;13.97;48.19
45071;BME280;30836;48.906;9.140;2024-01-07T00:49:56;980.33;;;13.95;48.47
45071;BME280;30836;48.906;9.140;2024-01-07T00:50:57;980.35;;;13.91;48.49
45071;BME280;30836;48.906;9.140;2024-01-07T00:51:57;980.39;;;13.83;48.86
45071;BME280;30836;48.906;9.140;2024-01-07T00:52:58;980.37;;;13.76;48.91
45071;BME280;30836;48.906;9.140;2024-01-07T00:53:58;980.35;;;13.78;48.72
45071;BME280;30836;48.906;9.140;2024-01-07T00:54:59;980.37;;;13.79;48.72
45071;BME280;30836;48.906;9.140;2024-01-07T00:55:59;980.37;;;13.76;48.82
45071;BME280;30836;48.906;9.140;2024-01-07T00:57:00;980.37;;;13.66;49.47
45071;BME280;30836;48.906;9.140;2024-01-07T00:58:00;980.35;;;13.56;49.46
45071;BME280;30836;48.906;9.140;2024-01-07T00:59:01;980.35;;;13.52;49.47
45071;BME280;30836;48.906;9.140;2024-01-07T01:00:04;980.35;;;13.53;49.28
45071;BME280;30836;48.906;9.140;2024-01-07T01:01:05;980.35;;;13.58;49.09
45071;BME280;30836;48.906;9.140;2024-01-07T01:02:06;980.35;;;13.62;49.06
45071;BME280;30836;48.906;9.140;2024-01-07T01:03:06;980.39;;;13.61;49.33
45071;BME280;30836;48.906;9.140;2024-01-07T01:04:07;980.35;;;13.55;49.47
45071;BME280;30836;48.906;9.140;2024-01-07T01:05:07;980.39;;;13.49;49.62
45071;BME280;30836;48.906;9.140;2024-01-07T01:06:08;980.41;;;13.46;49.71
45071;BME280;30836;48.906;9.140;2024-01-07T01:07:08;980.39;;;13.44;49.59
45071;BME280;30836;48.906;9.140;2024-01-07T01:08:09;980.41;;;13.45;49.67
45071;BME280;30836;48.906;9.140;2024-01-07T01:09:09;980.41;;;13.43;49.85
45071;BME280;30836;48.906;9.140;2024-01-07T01:10:09;980.45;;;13.42;49.73
45071;BME280;30836;48.906;9.140;2024-01-07T01:11:10;980.43;;;13.36;50.19
45071;BME280;30836;48.906;9.140;2024-01-07T01:12:10;980.41;;;13.23;50.49
45071;BME280;30836;48.906;9.140;2024-01-07T01:13:11;980.43;;;13.14;50.50
45071;BME280;30836;48.906;9.140;2024-01-07T01:14:11;980.43;;;13.07;50.63
45071;BME280;30836;48.906;9.140;2024-01-07T01:15:12;980.43;;;12.95;51.31
45071;BME280;30836;48.906;9.140;2024-01-07T01:16:12;980.43;;;12.81;51.48
45071;BME280;30836;48.906;9.140;2024-01-07T01:17:13;980.41;;;12.75;51.45
45071;BME280;30836;48.906;9.140;2024-01-07T01:18:13;980.45;;;12.67;51.78
45071;BME280;30836;48.906;9.140;2024-01-07T01:19:13;980.49;;;12.56;52.09
45071;BME280;30836;48.906;9.140;2024-01-07T01:20:14;980.47;;;12.47;52.23
45071;BME280;30836;48.906;9.140;2024-01-07T01:21:14;980.49;;;12.44;52.38
45071;BME280;30836;48.906;9.140;2024-01-07T01:22:15;980.51;;;12.42;52.46
45071;BME280;30836;48.906;9.140;2024-01-07T01:23:15;980.53;;;12.40;52.54
45071;BME280;30836;48.906;9.140;2024-01-07T01:24:16;980.55;;;12.38;52.48
45071;BME280;30836;48.906;9.140;2024-01-07T01:25:16;980.57;;;12.38;52.36
45071;BME280;30836;48.906;9.140;2024-01-07T01:26:17;980.57;;;12.39;52.35
45071;BME280;30836;48.906;9.140;2024-01-07T01:27:17;980.57;;;12.39;52.37
45071;BME280;30836;48.906;9.140;2024-01-07T01:28:17;980.57;;;12.39;52.44
45071;BME280;30836;48.906;9.140;2024-01-07T01:29:18;980.57;;;12.39;52.32
45071;BME280;30836;48.906;9.140;2024-01-07T01:30:18;980.59;;;12.35;52.69
45071;BME280;30836;48.906;9.140;2024-01-07T01:31:19;980.59;;;12.34;52.52
45071;BME280;30836;48.906;9.140;2024-01-07T01:32:19;980.57;;;12.35;52.51
45071;BME280;30836;48.906;9.140;2024-01-07T01:33:20;980.59;;;12.32;52.73
45071;BME280;30836;48.906;9.140;2024-01-07T01:34:20;980.59;;;12.27;52.70
45071;BME280;30836;48.906;9.140;2024-01-07T01:35:20;980.59;;;12.26;52.75
45071;BME280;30836;48.906;9.140;2024-01-07T01:36:21;980.59;;;12.28;52.60
45071;BME280;30836;48.906;9.140;2024-01-07T01:37:21;980.59;;;12.28;52.73
45071;BME280;30836;48.906;9.140;2024-01-07T01:38:22;980.59;;;12.25;52.84
45071;BME280;30836;48.906;9.140;2024-01-07T01:39:22;980.59;;;12.24;52.99
45071;BME280;30836;48.906;9.140;2024-01-07T01:40:23;980.61;;;12.21;52.98
45071;BME280;30836;48.906;9.140;2024-01-07T01:41:23;980.59;;;12.21;52.86
45071;BME280;30836;48.906;9.140;2024-01-07T01:42:24;980.59;;;12.23;52.83
45071;BME280;30836;48.906;9.140;2024-01-07T01:43:25;980.57;;;12.22;53.18
45071;BME280;30836;48.906;9.140;2024-01-07T01:44:28;980.57;;;12.17;53.09
45071;BME280;30836;48.906;9.140;2024-01-07T01:45:29;980.59;;;12.14;53.24
45071;BME280;30836;48.906;9.140;2024-01-07T01:46:29;980.59;;;12.08;53.57
45071;BME280;30836;48.906;9.140;2024-01-07T01:47:30;980.59;;;12.02;53.56
45071;BME280;30836;48.906;9.140;2024-01-07T01:48:31;980.63;;;11.98;53.87
45071;BME280;30836;48.906;9.140;2024-01-07T01:49:32;980.61;;;11.96;53.79
45071;BME280;30836;48.906;9.140;2024-01-07T01:50:32;980.59;;;12.01;53.53
45071;BME280;30836;48.906;9.140;2024-01-07T01:51:33;980.65;;;12.05;53.40
45071;BME280;30836;48.906;9.140;2024-01-07T01:52:34;980.63;;;12.08;53.34
45071;BME280;30836;48.906;9.140;2024-01-07T01:53:35;980.65;;;12.12;53.26
45071;BME280;30836;48.906;9.140;2024-01-07T01:54:36;980.67;;;12.17;53.22
45071;BME280;30836;48.906;9.140;2024-01-07T01:55:37;980.63;;;12.23;52.99
45071;BME280;30836;48.906;9.140;2024-01-07T01:56:37;980.65;;;12.27;52.88
45071;BME280;30836;48.906;9.140;2024-01-07T01:57:38;980.63;;;12.30;52.83
45071;BME280;30836;48.906;9.140;2024-01-07T01:58:39;980.65;;;12.33;52.77
45071;BME280;30836;48.906;9.140;2024-01-07T01:59:40;980.63;;;12.39;52.68
45071;BME280;30836;48.906;9.140;2024-01-07T02:00:43;980.61;;;12.43;52.65
45071;BME280;30836;48.906;9.140;2024-01-07T02:01:44;980.65;;;12.45;52.47
45071;BME280;30836;48.906;9.140;2024-01-07T02:02:45;980.61;;;12.49;52.35
45071;BME280;30836;48.906;9.140;2024-01-07T02:03:45;980.61;;;12.54;52.26
45071;BME280;30836;48.906;9.140;2024-01-07T02:04:46;980.63;;;12.60;52.10
45071;BME280;30836;48.906;9.140;2024-01-07T02:05:47;980.63;;;12.64;52.03
45071;BME280;30836;48.906;9.140;2024-01-07T02:06:49;980.61;;;12.68;51.91
45071;BME280;30836;48.906;9.140;2024-01-07T02:07:49;980.61;;;12.68;51.89
45071;BME280;30836;48.906;9.140;2024-01-07T02:08:50;980.63;;;12.70;51.86
45071;BME280;30836;48.906;9.140;2024-01-07T02:09:50;980.63;;;12.74;51.73
45071;BME280;30836;48.906;9.140;2024-01-07T02:10:51;980.67;;;12.81;51.38
45071;BME280;30836;48.906;9.140;2024-01-07T02:13:01;980.65;;;13.01;50.76
45071;BME280;30836;48.906;9.140;2024-01-07T02:14:01;980.65;;;13.12;50.59
45071;BME280;30836;48.906;9.140;2024-01-07T02:15:02;980.65;;;13.21;50.48
45071;BME280;30836;48.906;9.140;2024-01-07T02:16:03;980.65;;;13.28;50.17
45071;BME280;30836;48.906;9.140;2024-01-07T02:17:03;980.71;;;13.35;50.02
45071;BME280;30836;48.906;9.140;2024-01-07T02:18:04;980.69;;;13.43;49.78
45071;BME280;30836;48.906;9.140;2024-01-07T02:19:04;980.73;;;13.50;49.56
45071;BME280;30836;48.906;9.140;2024-01-07T02:20:06;980.73;;;13.55;49.51
45071;BME280;30836;48.906;9.140;2024-01-07T02:21:07;980.71;;;13.58;49.41
45071;BME280;30836;48.906;9.140;2024-01-07T02:22:09;980.73;;;13.61;49.26
45071;BME280;30836;48.906;9.140;2024-01-07T02:23:09;980.73;;;13.63;49.06
45071;BME280;30836;48.906;9.140;2024-01-07T02:24:14;980.73;;;13.62;49.19
45071;BME280;30836;48.906;9.140;2024-01-07T02:25:15;980.73;;;13.60;49.36
45071;BME280;30836;48.906;9.140;2024-01-07T02:26:16;980.73;;;13.59;49.28
45071;BME280;30836;48.906;9.140;2024-01-07T02:27:16;980.73;;;13.63;49.06
45071;BME280;30836;48.906;9.140;2024-01-07T02:28:17;980.75;;;13.67;48.85
45071;BME280;30836;48.906;9.140;2024-01-07T02:29:17;980.75;;;13.74;48.81
45071;BME280;30836;48.906;9.140;2024-01-07T02:30:17;980.75;;;13.80;48.70
45071;BME280;30836;48.906;9.140;2024-01-07T02:31:18;980.75;;;13.84;48.56
45071;BME280;30836;48.906;9.140;2024-01-07T02:32:18;980.75;;;13.87;48.58
45071;BME280;30836;48.906;9.140;2024-01-07T02:33:19;980.73;;;13.89;48.43
45071;BME280;30836;48.906;9.140;2024-01-07T02:34:19;980.77;;;13.93;48.38
45071;BME280;30836;48.906;9.140;2024-01-07T02:35:20;980.73;;;13.95;48.28
45071;BME280;30836;48.906;9.140;2024-01-07T02:36:20;980.73;;;13.95;48.10
45071;BME280;30836;48.906;9.140;2024-01-07T02:37:21;980.73;;;13.96;48.04
45071;BME280;30836;48.906;9.140;2024-01-07T02:38:21;980.75;;;13.99;48.10
45071;BME280;30836;48.906;9.140;2024-01-07T02:39:22;980.75;;;14.02;47.93
45071;BME280;30836;48.906;9.140;2024-01-07T02:40:22;980.73;;;14.04;47.95
45071;BME280;30836;48.906;9.140;2024-01-07T02:41:22;980.73;;;14.04;47.81
45071;BME280;30836;48.906;9.140;2024-01-07T02:42:23;980.75;;;14.02;47.87
45071;BME280;30836;48.906;9.140;2024-01-07T02:43:23;980.75;;;13.98;48.01
45071;BME280;30836;48.906;9.140;2024-01-07T02:44:24;980.71;;;13.95;47.90
45071;BME280;30836;48.906;9.140;2024-01-07T02:45:24;980.73;;;13.89;48.10
45071;BME280;30836;48.906;9.140;2024-01-07T02:46:25;980.69;;;13.80;48.17
45071;BME280;30836;48.906;9.140;2024-01-07T02:47:25;980.71;;;13.74;48.33
45071;BME280;30836;48.906;9.140;2024-01-07T02:48:25;980.69;;;13.69;48.29
45071;BME280;30836;48.906;9.140;2024-01-07T02:49:26;980.71;;;13.67;48.28
45071;BME280;30836;48.906;9.140;2024-01-07T02:50:26;980.69;;;13.64;48.43
45071;BME280;30836;48.906;9.140;2024-01-07T02:51:27;980.65;;;13.57;48.66
45071;BME280;30836;48.906;9.140;2024-01-07T02:52:28;980.67;;;13.52;48.54
45071;BME280;30836;48.906;9.140;2024-01-07T02:53:28;980.69;;;13.50;48.57
45071;BME280;30836;48.906;9.140;2024-01-07T02:54:29;980.69;;;13.47;48.72
45071;BME280;30836;48.906;9.140;2024-01-07T02:55:29;980.71;;;13.44;48.69
45071;BME280;30836;48.906;9.140;2024-01-07T02:56:29;980.67;;;13.45;48.63
45071;BME280;30836;48.906;9.140;2024-01-07T02:57:30;980.67;;;13.49;48.59
45071;BME280;30836;48.906;9.140;2024-01-07T02:58:30;980.69;;;13.56;48.44
45071;BME280;30836;48.906;9.140;2024-01-07T02:59:31;980.69;;;13.63;48.32
45071;BME280;30836;48.906;9.140;2024-01-07T03:00:31;980.69;;;13.70;48.19
45071;BME280;30836;48.906;9.140;2024-01-07T03:01:32;980.69;;;13.75;48.15
45071;BME280;30836;48.906;9.140;2024-01-07T03:02:32;980.71;;;13.77;48.08
45071;BME280;30836;48.906;9.140;2024-01-07T03:03:32;980.69;;;13.77;48.03
45071;BME280;30836;48.906;9.140;2024-01-07T03:04:33;980.71;;;13.76;48.11
45071;BME280;30836;48.906;9.140;2024-01-07T03:05:33;980.73;;;13.76;48.10
45071;BME280;30836;48.906;9.140;2024-01-07T03:06:34;980.71;;;13.78;48.01
45071;BME280;30836;48.906;9.140;2024-01-07T03:07:34;980.77;;;13.80;47.89
45071;BME280;30836;48.906;9.140;2024-01-07T03:08:34;980.77;;;13.81;47.96
45071;BME280;30836;48.906;9.140;2024-01-07T03:09:35;980.75;;;13.82;47.92
45071;BME280;30836;48.906;9.140;2024-01-07T03:10:36;980.75;;;13.83;47.95
45071;BME280;30836;48.906;9.140;2024-01-07T03:11:39;980.73;;;13.84;47.92
45071;BME280;30836;48.906;9.140;2024-01-07T03:12:40;980.77;;;13.84;47.89
45071;BME280;30836;48.906;9.140;2024-01-07T03:13:41;980.75;;;13.80;47.98
45071;BME280;30836;48.906;9.140;2024-01-07T03:14:42;980.77;;;13.73;48.17
45071;BME280;30836;48.906;9.140;2024-01-07T03:15:42;980.77;;;13.73;48.08
45071;BME280;30836;48.906;9.140;2024-01-07T03:16:43;980.75;;;13.73;48.06
45071;BME280;30836;48.906;9.140;2024-01-07T03:17:43;980.77;;;13.73;47.91
45071;BME280;30836;48.906;9.140;2024-01-07T03:18:44;980.79;;;13.76;47.84
45071;BME280;30836;48.906;9.140;2024-01-07T03:19:44;980.77;;;13.79;47.80
45071;BME280;30836;48.906;9.140;2024-01-07T03:20:45;980.80;;;13.81;47.68
45071;BME280;30836;48.906;9.140;2024-01-07T03:21:45;980.77;;;13.81;47.67
45071;BME280;30836;48.906;9.140;2024-01-07T03:22:45;980.80;;;13.80;47.77
45071;BME280;30836;48.906;9.140;2024-01-07T03:23:46;980.80;;;13.81;47.60
45071;BME280;30836;48.906;9.140;2024-01-07T03:24:47;980.79;;;13.80;47.68
45071;BME280;30836;48.906;9.140;2024-01-07T03:25:47;980.82;;;13.80;47.73
45071;BME280;30836;48.906;9.140;2024-01-07T03:26:48;980.84;;;13.82;47.65
45071;BME280;30836;48.906;9.140;2024-01-07T03:27:48;980.80;;;13.81;47.68
45071;BME280;30836;48.906;9.140;2024-01-07T03:28:48;980.84;;;13.81;47.76
45071;BME280;30836;48.906;9.140;2024-01-07T03:29:49;980.84;;;13.83;47.72
45071;BME280;30836;48.906;9.140;2024-01-07T03:30:49;980.88;;;13.83;47.77
45071;BME280;30836;48.906;9.140;2024-01-07T03:31:50;980.88;;;13.82;47.74
45071;BME280;30836;48.906;9.140;2024-01-07T03:32:50;980.88;;;13.82;47.62
45071;BME280;30836;48.906;9.140;2024-01-07T03:33:51;980.90;;;13.82;47.63
45071;BME280;30836;48.906;9.140;2024-01-07T03:34:51;980.86;;;13.80;47.70
45071;BME280;30836;48.906;9.140;2024-01-07T03:35:51;980.90;;;13.80;47.75
45071;BME280;30836;48.906;9.140;2024-01-07T03:36:52;980.92;;;13.81;47.67
45071;BME280;30836;48.906;9.140;2024-01-07T03:37:52;980.92;;;13.82;47.69
45071;BME280;30836;48.906;9.140;2024-01-07T03:38:53;980.92;;;13.82;47.68
45071;BME280;30836;48.906;9.140;2024-01-07T03:39:53;980.90;;;13.84;47.67
45071;BME280;30836;48.906;9.140;2024-01-07T03:40:54;980.94;;;13.87;47.59
45071;BME280;30836;48.906;9.140;2024-01-07T03:41:54;980.92;;;13.91;47.50
45071;BME280;30836;48.906;9.140;2024-01-07T03:42:55;980.98;;;13.94;47.40
45071;BME280;30836;48.906;9.140;2024-01-07T03:43:56;980.96;;;13.96;47.34
45071;BME280;30836;48.906;9.140;2024-01-07T03:44:56;980.96;;;13.99;47.20
45071;BME280;30836;48.906;9.140;2024-01-07T03:45:57;980.98;;;14.00;47.17
45071;BME280;30836;48.906;9.140;2024-01-07T03:46:57;980.94;;;13.99;47.23
45071;BME280;30836;48.906;9.140;2024-01-07T03:47:58;980.96;;;13.98;47.21
45071;BME280;30836;48.906;9.140;2024-01-07T03:48:58;980.96;;;13.92;47.33
45071;BME280;30836;48.906;9.140;2024-01-07T03:49:58;980.92;;;13.83;47.56
45071;BME280;30836;48.906;9.140;2024-01-07T03:50:59;980.94;;;13.77;47.60
45071;BME280;30836;48.906;9.140;2024-01-07T03:51:59;980.94;;;13.74;47.52
45071;BME280;30836;48.906;9.140;2024-01-07T03:53:00;980.94;;;13.73;47.45
45071;BME280;30836;48.906;9.140;2024-01-07T03:54:00;980.96;;;13.70;47.54
45071;BME280;30836;48.906;9.140;2024-01-07T03:55:01;980.92;;;13.65;47.72
45071;BME280;30836;48.906;9.140;2024-01-07T03:56:01;980.94;;;13.58;47.81
45071;BME280;30836;48.906;9.140;2024-01-07T03:57:02;980.96;;;13.55;47.81
45071;BME280;30836;48.906;9.140;2024-01-07T03:58:02;980.94;;;13.53;47.87
45071;BME280;30836;48.906;9.140;2024-01-07T03:59:03;980.92;;;13.52;47.78
45071;BME280;30836;48.906;9.140;2024-01-07T04:00:03;980.94;;;13.53;47.74
45071;BME280;30836;48.906;9.140;2024-01-07T04:01:04;980.96;;;13.54;47.67
45071;BME280;30836;48.906;9.140;2024-01-07T04:02:05;980.96;;;13.54;47.69
45071;BME280;30836;48.906;9.140;2024-01-07T04:03:06;980.92;;;13.49;47.90
45071;BME280;30836;48.906;9.140;2024-01-07T04:04:06;980.88;;;13.34;48.45
45071;BME280;30836;48.906;9.140;2024-01-07T04:05:07;980.90;;;13.21;48.46
45071;BME280;30836;48.906;9.140;2024-01-07T04:06:08;980.92;;;13.20;48.21
45071;BME280;30836;48.906;9.140;2024-01-07T04:07:09;980.92;;;13.25;48.15
45071;BME280;30836;48.906;9.140;2024-01-07T04:08:09;980.90;;;13.29;47.94
45071;BME280;30836;48.906;9.140;2024-01-07T04:09:10;980.94;;;13.31;47.94
45071;BME280;30836;48.906;9.140;2024-01-07T04:10:10;980.94;;;13.32;47.92
45071;BME280;30836;48.906;9.140;2024-01-07T04:11:11;980.94;;;13.32;47.88
45071;BME280;30836;48.906;9.140;2024-01-07T04:12:11;980.94;;;13.29;48.17
45071;BME280;30836;48.906;9.140;2024-01-07T04:13:12;980.94;;;13.24;48.33
45071;BME280;30836;48.906;9.140;2024-01-07T04:14:13;980.98;;;13.20;48.38
45071;BME280;30836;48.906;9.140;2024-01-07T04:15:15;981.00;;;13.17;48.44
45071;BME280;30836;48.906;9.140;2024-01-07T04:16:16;981.00;;;13.17;48.32
45071;BME280;30836;48.906;9.140;2024-01-07T04:17:17;981.00;;;13.19;48.28
45071;BME280;30836;48.906;9.140;2024-01-07T04:18:17;981.00;;;13.22;48.24
45071;BME280;30836;48.906;9.140;2024-01-07T04:19:18;981.00;;;13.24;48.18
45071;BME280;30836;48.906;9.140;2024-01-07T04:20:18;981.00;;;13.24;48.28
45071;BME280;30836;48.906;9.140;2024-01-07T04:21:19;981.02;;;13.25;48.25
45071;BME280;30836;48.906;9.140;2024-01-07T04:22:19;981.06;;;13.27;48.19
45071;BME280;30836;48.906;9.140;2024-01-07T04:23:19;981.06;;;13.30;48.05
45071;BME280;30836;48.906;9.140;2024-01-07T04:24:20;981.06;;;13.34;48.01
45071;BME280;30836;48.906;9.140;2024-01-07T04:25:20;981.06;;;13.37;47.93
45071;BME280;30836;48.906;9.140;2024-01-07T04:26:21;981.06;;;13.38;47.93
45071;BME280;30836;48.906;9.140;2024-01-07T04:27:21;981.10;;;13.35;48.05
45071;BME280;30836;48.906;9.140;2024-01-07T04:28:21;981.12;;;13.31;48.02
45071;BME280;30836;48.906;9.140;2024-01-07T04:29:22;981.08;;;13.27;48.06
45071;BME280;30836;48.906;9.140;2024-01-07T04:30:22;981.10;;;13.20;48.27
45071;BME280;30836;48.906;9.140;2024-01-07T04:31:23;981.10;;;13.15;48.32
45071;BME280;30836;48.906;9.140;2024-01-07T04:32:23;981.10;;;13.10;48.24
45071;BME280;30836;48.906;9.140;2024-01-07T04:33:24;981.10;;;13.08;48.40
45071;BME280;30836;48.906;9.140;2024-01-07T04:34:24;981.12;;;13.08;48.49
45071;BME280;30836;48.906;9.140;2024-01-07T04:35:24;981.14;;;13.09;48.32
45071;BME280;30836;48.906;9.140;2024-01-07T04:36:25;981.12;;;13.10;48.34
45071;BME280;30836;48.906;9.140;2024-01-07T04:37:25;981.14;;;13.10;48.45
45071;BME280;30836;48.906;9.140;2024-01-07T04:38:26;981.14;;;13.08;48.51
45071;BME280;30836;48.906;9.140;2024-01-07T04:39:27;981.16;;;13.05;48.63
45071;BME280;30836;48.906;9.140;2024-01-07T04:40:27;981.14;;;13.04;48.59
45071;BME280;30836;48.906;9.140;2024-01-07T04:41:28;981.14;;;13.07;48.41
45071;BME280;30836;48.906;9.140;2024-01-07T04:42:28;981.18;;;13.12;48.30
45071;BME280;30836;48.906;9.140;2024-01-07T04:43:29;981.18;;;13.16;48.34
45071;BME280;30836;48.906;9.140;2024-01-07T04:44:29;981.18;;;13.17;48.39
45071;BME280;30836;48.906;9.140;2024-01-07T04:45:29;981.18;;;13.16;48.32
45071;BME280;30836;48.906;9.140;2024-01-07T04:46:33;981.20;;;13.16;48.30
45071;BME280;30836;48.906;9.140;2024-01-07T04:47:34;981.20;;;13.16;48.23
45071;BME280;30836;48.906;9.140;2024-01-07T04:48:34;981.22;;;13.17;48.33
45071;BME280;30836;48.906;9.140;2024-01-07T04:49:35;981.22;;;13.21;48.24
45071;BME280;30836;48.906;9.140;2024-01-07T04:50:36;981.24;;;13.26;48.21
45071;BME280;30836;48.906;9.140;2024-01-07T04:51:36;981.26;;;13.27;48.18
45071;BME280;30836;48.906;9.140;2024-01-07T04:52:37;981.26;;;13.27;48.21
45071;BME280;30836;48.906;9.140;2024-01-07T04:53:37;981.28;;;13.27;48.21
45071;BME280;30836;48.906;9.140;2024-01-07T04:54:38;981.26;;;13.26;48.31
45071;BME280;30836;48.906;9.140;2024-01-07T04:55:38;981.26;;;13.22;48.30
45071;BME280;30836;48.906;9.140;2024-01-07T04:56:38;981.28;;;13.16;48.42
45071;BME280;30836;48.906;9.140;2024-01-07T04:57:39;981.26;;;13.11;48.61
45071;BME280;30836;48.906;9.140;2024-01-07T04:58:39;981.28;;;13.09;48.57
45071;BME280;30836;48.906;9.140;2024-01-07T04:59:40;981.30;;;13.11;48.56
45071;BME280;30836;48.906;9.140;2024-01-07T05:00:40;981.28;;;13.16;48.43
45071;BME280;30836;48.906;9.140;2024-01-07T05:01:41;981.30;;;13.19;48.49
45071;BME280;30836;48.906;9.140;2024-01-07T05:02:41;981.30;;;13.21;48.36
45071;BME280;30836;48.906;9.140;2024-01-07T05:03:42;981.28;;;13.24;48.25
45071;BME280;30836;48.906;9.140;2024-01-07T05:04:42;981.31;;;13.26;48.24
45071;BME280;30836;48.906;9.140;2024-01-07T05:05:43;981.31;;;13.28;48.13
45071;BME280;30836;48.906;9.140;2024-01-07T05:06:44;981.31;;;13.29;48.22
45071;BME280;30836;48.906;9.140;2024-01-07T05:07:44;981.33;;;13.30;48.22
45071;BME280;30836;48.906;9.140;2024-01-07T05:08:45;981.33;;;13.31;48.22
45071;BME280;30836;48.906;9.140;2024-01-07T05:09:45;981.31;;;13.29;48.15
45071;BME280;30836;48.906;9.140;2024-01-07T05:10:46;981.35;;;13.23;48.47
45071;BME280;30836;48.906;9.140;2024-01-07T05:11:46;981.33;;;13.18;48.42
45071;BME280;30836;48.906;9.140;2024-01-07T05:12:46;981.37;;;13.15;48.53
45071;BME280;30836;48.906;9.140;2024-01-07T05:13:47;981.35;;;13.10;48.35
45071;BME280;30836;48.906;9.140;2024-01-07T05:14:47;981.39;;;13.04;48.78
45071;BME280;30836;48.906;9.140;2024-01-07T05:15:48;981.37;;;13.02;48.67
45071;BME280;30836;48.906;9.140;2024-01-07T05:16:48;981.39;;;13.01;48.79
45071;BME280;30836;48.906;9.140;2024-01-07T05:17:49;981.43;;;12.99;48.73
45071;BME280;30836;48.906;9.140;2024-01-07T05:18:49;981.43;;;12.98;48.90
45071;BME280;30836;48.906;9.140;2024-01-07T05:19:50;981.45;;;12.97;48.96
45071;BME280;30836;48.906;9.140;2024-01-07T05:20:50;981.45;;;13.00;48.80
45071;BME280;30836;48.906;9.140;2024-01-07T05:21:51;981.43;;;13.03;48.78
45071;BME280;30836;48.906;9.140;2024-01-07T05:22:53;981.45;;;13.05;48.69
45071;BME280;30836;48.906;9.140;2024-01-07T05:23:53;981.45;;;13.06;48.81
45071;BME280;30836;48.906;9.140;2024-01-07T05:24:54;981.45;;;13.06;48.77
45071;BME280;30836;48.906;9.140;2024-01-07T05:25:54;981.43;;;13.08;48.76
45071;BME280;30836;48.906;9.140;2024-01-07T05:26:54;981.41;;;13.10;48.74
45071;BME280;30836;48.906;9.140;2024-01-07T05:27:55;981.45;;;13.12;48.68
45071;BME280;30836;48.906;9.140;2024-01-07T05:28:55;981.45;;;13.13;48.48
45071;BME280;30836;48.906;9.140;2024-01-07T05:29:56;981.47;;;13.09;48.71
45071;BME280;30836;48.906;9.140;2024-01-07T05:30:56;981.47;;;13.06;48.77